sensor_id;sensor_type;location;lat;lon;timestamp;P1;durP1;ratioP1;P2;durP2;ratioP2
40729;SDS011;26418;50.070;8.436;2023-03-16T00:00:43;12.18;;;3.85;;
40729;SDS011;26418;50.070;8.436;2023-03-16T00:03:09;8.48;;;3.75;;
40729;SDS011;26418;50.070;8.436;2023-03-16T00:05:36;6.75;;;3.13;;
40729;SDS011;26418;50.070;8.436;2023-03-16T00:08:01;5.88;;;3.00;;
40729;SDS011;26418;50.070;8.436;2023-03-16T00:10:27;5.75;;;3.60;;
40729;SDS011;26418;50.070;8.436;2023-03-16T00:12:53;8.68;;;2.80;;
40729;SDS011;26418;50.070;8.436;2023-03-16T00:15:19;6.93;;;3.17;;
40729;SDS011;26418;50.070;8.436;2023-03-16T00:17:45;4.80;;;2.70;;
40729;SDS011;26418;50.070;8.436;2023-03-16T00:20:14;8.10;;;3.08;;
40729;SDS011;26418;50.070;8.436;2023-03-16T00:22:40;7.35;;;2.90;;
40729;SDS011;26418;50.070;8.436;2023-03-16T00:25:06;5.30;;;2.72;;
40729;SDS011;26418;50.070;8.436;2023-03-16T00:27:33;6.45;;;2.70;;
40729;SDS011;26418;50.070;8.436;2023-03-16T00:29:59;6.82;;;2.70;;
40729;SDS011;26418;50.070;8.436;2023-03-16T00:32:31;8.63;;;3.15;;
40729;SDS011;26418;50.070;8.436;2023-03-16T00:34:58;5.53;;;3.47;;
40729;SDS011;26418;50.070;8.436;2023-03-16T00:37:25;7.75;;;3.33;;
40729;SDS011;26418;50.070;8.436;2023-03-16T00:39:52;10.20;;;3.20;;
40729;SDS011;26418;50.070;8.436;2023-03-16T00:42:23;8.38;;;2.65;;
40729;SDS011;26418;50.070;8.436;2023-03-16T00:44:57;4.70;;;3.17;;
40729;SDS011;26418;50.070;8.436;2023-03-16T00:47:27;5.82;;;3.00;;
40729;SDS011;26418;50.070;8.436;2023-03-16T00:49:54;7.65;;;3.63;;
40729;SDS011;26418;50.070;8.436;2023-03-16T00:52:20;7.05;;;3.00;;
40729;SDS011;26418;50.070;8.436;2023-03-16T00:54:47;7.03;;;3.63;;
40729;SDS011;26418;50.070;8.436;2023-03-16T00:57:14;7.35;;;2.78;;
40729;SDS011;26418;50.070;8.436;2023-03-16T00:59:42;6.78;;;2.78;;
40729;SDS011;26418;50.070;8.436;2023-03-16T01:02:09;8.48;;;3.35;;
40729;SDS011;26418;50.070;8.436;2023-03-16T01:04:36;8.73;;;3.53;;
40729;SDS011;26418;50.070;8.436;2023-03-16T01:07:03;9.63;;;3.60;;
40729;SDS011;26418;50.070;8.436;2023-03-16T01:09:30;5.97;;;3.30;;
40729;SDS011;26418;50.070;8.436;2023-03-16T01:12:00;9.60;;;3.73;;
40729;SDS011;26418;50.070;8.436;2023-03-16T01:14:30;9.02;;;3.92;;
40729;SDS011;26418;50.070;8.436;2023-03-16T01:16:57;8.73;;;3.72;;
40729;SDS011;26418;50.070;8.436;2023-03-16T01:19:22;9.80;;;4.07;;
40729;SDS011;26418;50.070;8.436;2023-03-16T01:21:47;11.43;;;4.25;;
40729;SDS011;26418;50.070;8.436;2023-03-16T01:24:13;10.18;;;4.28;;
40729;SDS011;26418;50.070;8.436;2023-03-16T01:26:38;9.02;;;3.70;;
40729;SDS011;26418;50.070;8.436;2023-03-16T01:29:04;10.27;;;4.50;;
40729;SDS011;26418;50.070;8.436;2023-03-16T01:31:29;10.20;;;4.32;;
40729;SDS011;26418;50.070;8.436;2023-03-16T01:33:55;7.15;;;3.72;;
40729;SDS011;26418;50.070;8.436;2023-03-16T01:36:21;8.82;;;3.83;;
40729;SDS011;26418;50.070;8.436;2023-03-16T01:38:46;8.43;;;3.88;;
40729;SDS011;26418;50.070;8.436;2023-03-16T01:41:12;9.20;;;3.67;;
40729;SDS011;26418;50.070;8.436;2023-03-16T01:43:39;6.68;;;4.22;;
40729;SDS011;26418;50.070;8.436;2023-03-16T01:48:39;8.38;;;4.00;;
40729;SDS011;26418;50.070;8.436;2023-03-16T01:51:23;12.00;;;4.45;;
40729;SDS011;26418;50.070;8.436;2023-03-16T01:53:57;7.72;;;3.55;;
40729;SDS011;26418;50.070;8.436;2023-03-16T01:56:28;8.95;;;3.60;;
40729;SDS011;26418;50.070;8.436;2023-03-16T01:58:58;13.93;;;3.53;;
40729;SDS011;26418;50.070;8.436;2023-03-16T02:01:30;13.73;;;4.32;;
40729;SDS011;26418;50.070;8.436;2023-03-16T02:04:01;5.95;;;3.88;;
40729;SDS011;26418;50.070;8.436;2023-03-16T02:06:47;9.30;;;3.80;;
40729;SDS011;26418;50.070;8.436;2023-03-16T02:09:12;15.27;;;4.78;;
40729;SDS011;26418;50.070;8.436;2023-03-16T02:11:39;9.57;;;4.18;;
40729;SDS011;26418;50.070;8.436;2023-03-16T02:14:07;12.70;;;4.30;;
40729;SDS011;26418;50.070;8.436;2023-03-16T02:16:34;8.48;;;4.78;;
40729;SDS011;26418;50.070;8.436;2023-03-16T02:19:00;7.65;;;4.38;;
40729;SDS011;26418;50.070;8.436;2023-03-16T02:24:20;10.65;;;4.85;;
40729;SDS011;26418;50.070;8.436;2023-03-16T02:26:53;10.65;;;4.55;;
40729;SDS011;26418;50.070;8.436;2023-03-16T02:32:05;12.43;;;4.18;;
40729;SDS011;26418;50.070;8.436;2023-03-16T02:34:31;8.20;;;3.70;;
40729;SDS011;26418;50.070;8.436;2023-03-16T02:36:57;8.20;;;4.00;;
40729;SDS011;26418;50.070;8.436;2023-03-16T02:39:23;9.88;;;4.55;;
40729;SDS011;26418;50.070;8.436;2023-03-16T02:41:49;11.15;;;4.93;;
40729;SDS011;26418;50.070;8.436;2023-03-16T02:44:24;9.65;;;4.70;;
40729;SDS011;26418;50.070;8.436;2023-03-16T02:46:53;13.02;;;4.68;;
40729;SDS011;26418;50.070;8.436;2023-03-16T02:52:01;9.95;;;4.85;;
40729;SDS011;26418;50.070;8.436;2023-03-16T02:54:27;10.52;;;5.05;;
40729;SDS011;26418;50.070;8.436;2023-03-16T02:56:53;12.68;;;5.43;;
40729;SDS011;26418;50.070;8.436;2023-03-16T02:59:18;13.50;;;5.32;;
40729;SDS011;26418;50.070;8.436;2023-03-16T03:01:43;12.40;;;5.35;;
40729;SDS011;26418;50.070;8.436;2023-03-16T03:04:09;12.80;;;6.15;;
40729;SDS011;26418;50.070;8.436;2023-03-16T03:06:35;13.30;;;5.65;;
40729;SDS011;26418;50.070;8.436;2023-03-16T03:09:00;15.25;;;7.50;;
40729;SDS011;26418;50.070;8.436;2023-03-16T03:11:26;10.98;;;6.53;;
40729;SDS011;26418;50.070;8.436;2023-03-16T03:13:52;12.45;;;6.60;;
40729;SDS011;26418;50.070;8.436;2023-03-16T03:16:18;14.38;;;6.28;;
40729;SDS011;26418;50.070;8.436;2023-03-16T03:18:43;11.43;;;5.70;;
40729;SDS011;26418;50.070;8.436;2023-03-16T03:21:09;17.30;;;7.57;;
40729;SDS011;26418;50.070;8.436;2023-03-16T03:23:34;15.77;;;6.93;;
40729;SDS011;26418;50.070;8.436;2023-03-16T03:26:00;11.05;;;6.57;;
40729;SDS011;26418;50.070;8.436;2023-03-16T03:28:27;12.55;;;6.80;;
40729;SDS011;26418;50.070;8.436;2023-03-16T03:30:52;15.60;;;7.78;;
40729;SDS011;26418;50.070;8.436;2023-03-16T03:33:17;14.82;;;7.53;;
40729;SDS011;26418;50.070;8.436;2023-03-16T03:35:43;16.70;;;7.30;;
40729;SDS011;26418;50.070;8.436;2023-03-16T03:38:08;18.35;;;8.35;;
40729;SDS011;26418;50.070;8.436;2023-03-16T03:40:35;15.15;;;7.35;;
40729;SDS011;26418;50.070;8.436;2023-03-16T03:43:00;19.88;;;8.18;;
40729;SDS011;26418;50.070;8.436;2023-03-16T03:45:26;12.82;;;6.57;;
40729;SDS011;26418;50.070;8.436;2023-03-16T03:47:51;20.60;;;7.90;;
40729;SDS011;26418;50.070;8.436;2023-03-16T03:50:19;14.18;;;7.55;;
40729;SDS011;26418;50.070;8.436;2023-03-16T03:52:45;16.35;;;7.75;;
40729;SDS011;26418;50.070;8.436;2023-03-16T03:55:10;14.45;;;7.43;;
40729;SDS011;26418;50.070;8.436;2023-03-16T03:57:36;11.50;;;6.60;;
40729;SDS011;26418;50.070;8.436;2023-03-16T04:00:02;18.67;;;7.78;;
40729;SDS011;26418;50.070;8.436;2023-03-16T04:02:32;13.18;;;6.85;;
40729;SDS011;26418;50.070;8.436;2023-03-16T04:04:57;14.75;;;7.25;;
40729;SDS011;26418;50.070;8.436;2023-03-16T04:07:22;17.00;;;7.25;;
40729;SDS011;26418;50.070;8.436;2023-03-16T04:09:48;13.70;;;7.25;;
40729;SDS011;26418;50.070;8.436;2023-03-16T04:12:13;14.65;;;7.00;;
40729;SDS011;26418;50.070;8.436;2023-03-16T04:14:38;13.50;;;7.47;;
40729;SDS011;26418;50.070;8.436;2023-03-16T04:17:04;15.57;;;7.85;;
40729;SDS011;26418;50.070;8.436;2023-03-16T04:19:29;15.25;;;8.32;;
40729;SDS011;26418;50.070;8.436;2023-03-16T04:21:54;14.85;;;7.75;;
40729;SDS011;26418;50.070;8.436;2023-03-16T04:24:20;18.70;;;7.90;;
40729;SDS011;26418;50.070;8.436;2023-03-16T04:26:46;18.40;;;8.40;;
40729;SDS011;26418;50.070;8.436;2023-03-16T04:29:12;15.70;;;7.20;;
40729;SDS011;26418;50.070;8.436;2023-03-16T04:31:38;13.90;;;7.10;;
40729;SDS011;26418;50.070;8.436;2023-03-16T04:34:04;14.57;;;7.50;;
40729;SDS011;26418;50.070;8.436;2023-03-16T04:36:30;13.90;;;7.63;;
40729;SDS011;26418;50.070;8.436;2023-03-16T04:38:57;17.85;;;7.90;;
40729;SDS011;26418;50.070;8.436;2023-03-16T04:41:22;14.60;;;7.80;;
40729;SDS011;26418;50.070;8.436;2023-03-16T04:43:48;17.67;;;8.40;;
40729;SDS011;26418;50.070;8.436;2023-03-16T04:46:13;17.35;;;7.63;;
40729;SDS011;26418;50.070;8.436;2023-03-16T04:48:38;20.75;;;8.93;;
40729;SDS011;26418;50.070;8.436;2023-03-16T04:51:04;19.42;;;8.10;;
40729;SDS011;26418;50.070;8.436;2023-03-16T04:53:29;16.27;;;7.43;;
40729;SDS011;26418;50.070;8.436;2023-03-16T04:55:56;16.23;;;6.97;;
40729;SDS011;26418;50.070;8.436;2023-03-16T04:58:22;13.63;;;7.43;;
40729;SDS011;26418;50.070;8.436;2023-03-16T05:00:50;11.90;;;6.85;;
40729;SDS011;26418;50.070;8.436;2023-03-16T05:03:16;14.15;;;7.60;;
40729;SDS011;26418;50.070;8.436;2023-03-16T05:05:41;15.20;;;7.47;;
40729;SDS011;26418;50.070;8.436;2023-03-16T05:08:07;19.58;;;8.07;;
40729;SDS011;26418;50.070;8.436;2023-03-16T05:10:34;15.15;;;7.57;;
40729;SDS011;26418;50.070;8.436;2023-03-16T05:13:00;19.20;;;7.45;;
40729;SDS011;26418;50.070;8.436;2023-03-16T05:15:25;17.55;;;8.18;;
40729;SDS011;26418;50.070;8.436;2023-03-16T05:17:51;11.55;;;6.35;;
40729;SDS011;26418;50.070;8.436;2023-03-16T05:20:19;12.93;;;6.97;;
40729;SDS011;26418;50.070;8.436;2023-03-16T05:22:45;15.32;;;7.68;;
40729;SDS011;26418;50.070;8.436;2023-03-16T05:25:12;16.02;;;7.68;;
40729;SDS011;26418;50.070;8.436;2023-03-16T05:27:46;14.77;;;7.40;;
40729;SDS011;26418;50.070;8.436;2023-03-16T05:30:14;16.13;;;7.63;;
40729;SDS011;26418;50.070;8.436;2023-03-16T05:32:41;17.40;;;7.88;;
40729;SDS011;26418;50.070;8.436;2023-03-16T05:35:07;13.45;;;6.80;;
40729;SDS011;26418;50.070;8.436;2023-03-16T05:37:34;19.95;;;7.80;;
40729;SDS011;26418;50.070;8.436;2023-03-16T05:40:03;14.30;;;7.10;;
40729;SDS011;26418;50.070;8.436;2023-03-16T05:42:40;15.90;;;7.65;;
40729;SDS011;26418;50.070;8.436;2023-03-16T05:45:10;14.30;;;6.93;;
40729;SDS011;26418;50.070;8.436;2023-03-16T05:47:36;17.40;;;7.53;;
40729;SDS011;26418;50.070;8.436;2023-03-16T05:50:04;17.83;;;7.20;;
40729;SDS011;26418;50.070;8.436;2023-03-16T05:52:35;17.38;;;7.00;;
40729;SDS011;26418;50.070;8.436;2023-03-16T05:55:01;15.15;;;7.68;;
40729;SDS011;26418;50.070;8.436;2023-03-16T05:57:26;14.80;;;7.30;;
40729;SDS011;26418;50.070;8.436;2023-03-16T05:59:52;18.30;;;7.50;;
40729;SDS011;26418;50.070;8.436;2023-03-16T06:02:17;15.77;;;7.10;;
40729;SDS011;26418;50.070;8.436;2023-03-16T06:04:42;16.42;;;7.18;;
40729;SDS011;26418;50.070;8.436;2023-03-16T06:07:08;16.30;;;7.25;;
40729;SDS011;26418;50.070;8.436;2023-03-16T06:09:33;12.95;;;7.15;;
40729;SDS011;26418;50.070;8.436;2023-03-16T06:11:59;11.38;;;5.57;;
40729;SDS011;26418;50.070;8.436;2023-03-16T06:14:24;13.95;;;7.32;;
40729;SDS011;26418;50.070;8.436;2023-03-16T06:16:50;17.55;;;8.00;;
40729;SDS011;26418;50.070;8.436;2023-03-16T06:19:15;16.95;;;7.63;;
40729;SDS011;26418;50.070;8.436;2023-03-16T06:21:40;17.27;;;7.53;;
40729;SDS011;26418;50.070;8.436;2023-03-16T06:24:06;19.13;;;7.60;;
40729;SDS011;26418;50.070;8.436;2023-03-16T06:26:33;16.10;;;7.93;;
40729;SDS011;26418;50.070;8.436;2023-03-16T06:28:59;16.55;;;7.68;;
40729;SDS011;26418;50.070;8.436;2023-03-16T06:31:24;18.10;;;7.65;;
40729;SDS011;26418;50.070;8.436;2023-03-16T06:33:49;17.92;;;8.00;;
40729;SDS011;26418;50.070;8.436;2023-03-16T06:36:15;17.88;;;7.47;;
40729;SDS011;26418;50.070;8.436;2023-03-16T06:38:40;16.58;;;7.90;;
40729;SDS011;26418;50.070;8.436;2023-03-16T06:41:06;16.80;;;8.00;;
40729;SDS011;26418;50.070;8.436;2023-03-16T06:43:31;12.23;;;6.82;;
40729;SDS011;26418;50.070;8.436;2023-03-16T06:45:57;13.93;;;7.93;;
40729;SDS011;26418;50.070;8.436;2023-03-16T06:48:22;17.52;;;8.10;;
40729;SDS011;26418;50.070;8.436;2023-03-16T06:50:48;17.38;;;8.25;;
40729;SDS011;26418;50.070;8.436;2023-03-16T06:53:13;15.18;;;8.40;;
40729;SDS011;26418;50.070;8.436;2023-03-16T06:55:38;18.27;;;8.60;;
40729;SDS011;26418;50.070;8.436;2023-03-16T06:58:04;17.05;;;8.75;;
40729;SDS011;26418;50.070;8.436;2023-03-16T07:00:29;19.15;;;8.52;;
40729;SDS011;26418;50.070;8.436;2023-03-16T07:02:55;16.35;;;8.40;;
40729;SDS011;26418;50.070;8.436;2023-03-16T07:05:20;20.73;;;9.50;;
40729;SDS011;26418;50.070;8.436;2023-03-16T07:07:46;14.32;;;7.72;;
40729;SDS011;26418;50.070;8.436;2023-03-16T07:10:12;15.27;;;8.48;;
40729;SDS011;26418;50.070;8.436;2023-03-16T07:12:39;16.73;;;7.55;;
40729;SDS011;26418;50.070;8.436;2023-03-16T07:15:06;12.02;;;7.45;;
40729;SDS011;26418;50.070;8.436;2023-03-16T07:17:31;15.05;;;8.30;;
40729;SDS011;26418;50.070;8.436;2023-03-16T07:19:57;16.70;;;9.05;;
40729;SDS011;26418;50.070;8.436;2023-03-16T07:22:22;17.90;;;7.85;;
40729;SDS011;26418;50.070;8.436;2023-03-16T07:24:47;17.02;;;8.65;;
40729;SDS011;26418;50.070;8.436;2023-03-16T07:27:20;19.73;;;8.15;;
40729;SDS011;26418;50.070;8.436;2023-03-16T07:29:47;17.17;;;8.90;;
40729;SDS011;26418;50.070;8.436;2023-03-16T07:32:12;17.02;;;9.13;;
40729;SDS011;26418;50.070;8.436;2023-03-16T07:34:38;20.58;;;8.73;;
40729;SDS011;26418;50.070;8.436;2023-03-16T07:37:03;17.88;;;8.43;;
40729;SDS011;26418;50.070;8.436;2023-03-16T07:39:29;17.27;;;8.07;;
40729;SDS011;26418;50.070;8.436;2023-03-16T07:41:55;13.27;;;7.22;;
40729;SDS011;26418;50.070;8.436;2023-03-16T07:44:21;18.25;;;9.13;;
40729;SDS011;26418;50.070;8.436;2023-03-16T07:46:46;15.60;;;8.98;;
40729;SDS011;26418;50.070;8.436;2023-03-16T07:49:11;15.98;;;8.50;;
40729;SDS011;26418;50.070;8.436;2023-03-16T07:51:37;15.93;;;8.75;;
40729;SDS011;26418;50.070;8.436;2023-03-16T07:54:02;16.65;;;8.23;;
40729;SDS011;26418;50.070;8.436;2023-03-16T07:56:28;15.02;;;7.63;;
40729;SDS011;26418;50.070;8.436;2023-03-16T07:58:53;14.77;;;8.80;;
40729;SDS011;26418;50.070;8.436;2023-03-16T08:01:19;16.80;;;8.57;;
40729;SDS011;26418;50.070;8.436;2023-03-16T08:03:44;16.65;;;8.90;;
40729;SDS011;26418;50.070;8.436;2023-03-16T08:06:09;13.73;;;8.32;;
40729;SDS011;26418;50.070;8.436;2023-03-16T08:08:36;14.52;;;8.07;;
40729;SDS011;26418;50.070;8.436;2023-03-16T08:11:01;16.10;;;9.15;;
40729;SDS011;26418;50.070;8.436;2023-03-16T08:13:26;21.42;;;9.55;;
40729;SDS011;26418;50.070;8.436;2023-03-16T08:15:52;16.98;;;8.32;;
40729;SDS011;26418;50.070;8.436;2023-03-16T08:18:23;15.10;;;8.32;;
40729;SDS011;26418;50.070;8.436;2023-03-16T08:20:49;16.88;;;9.18;;
40729;SDS011;26418;50.070;8.436;2023-03-16T08:23:15;16.25;;;9.00;;
40729;SDS011;26418;50.070;8.436;2023-03-16T08:25:41;17.02;;;8.88;;
40729;SDS011;26418;50.070;8.436;2023-03-16T08:28:07;14.80;;;7.95;;
40729;SDS011;26418;50.070;8.436;2023-03-16T08:30:33;15.05;;;8.63;;
40729;SDS011;26418;50.070;8.436;2023-03-16T08:32:59;17.05;;;9.25;;
40729;SDS011;26418;50.070;8.436;2023-03-16T08:35:27;16.73;;;9.27;;
40729;SDS011;26418;50.070;8.436;2023-03-16T08:37:53;14.75;;;8.85;;
40729;SDS011;26418;50.070;8.436;2023-03-16T08:40:18;15.88;;;9.77;;
40729;SDS011;26418;50.070;8.436;2023-03-16T08:42:46;15.30;;;9.80;;
40729;SDS011;26418;50.070;8.436;2023-03-16T08:45:14;15.93;;;9.55;;
40729;SDS011;26418;50.070;8.436;2023-03-16T08:47:40;17.75;;;9.40;;
40729;SDS011;26418;50.070;8.436;2023-03-16T08:50:06;17.92;;;9.35;;
40729;SDS011;26418;50.070;8.436;2023-03-16T08:52:32;16.40;;;8.23;;
40729;SDS011;26418;50.070;8.436;2023-03-16T08:54:58;17.33;;;8.43;;
40729;SDS011;26418;50.070;8.436;2023-03-16T08:57:24;17.42;;;8.95;;
40729;SDS011;26418;50.070;8.436;2023-03-16T08:59:50;16.65;;;9.15;;
40729;SDS011;26418;50.070;8.436;2023-03-16T09:02:15;14.75;;;9.32;;
40729;SDS011;26418;50.070;8.436;2023-03-16T09:04:41;13.98;;;8.77;;
40729;SDS011;26418;50.070;8.436;2023-03-16T09:07:06;17.23;;;8.85;;
40729;SDS011;26418;50.070;8.436;2023-03-16T09:09:32;19.90;;;8.60;;
40729;SDS011;26418;50.070;8.436;2023-03-16T09:11:59;14.98;;;8.40;;
40729;SDS011;26418;50.070;8.436;2023-03-16T09:14:24;14.25;;;8.32;;
40729;SDS011;26418;50.070;8.436;2023-03-16T09:16:50;12.63;;;7.90;;
40729;SDS011;26418;50.070;8.436;2023-03-16T09:19:16;11.43;;;7.75;;
40729;SDS011;26418;50.070;8.436;2023-03-16T09:21:41;13.98;;;8.43;;
40729;SDS011;26418;50.070;8.436;2023-03-16T09:24:07;14.43;;;8.95;;
40729;SDS011;26418;50.070;8.436;2023-03-16T09:26:34;15.73;;;8.45;;
40729;SDS011;26418;50.070;8.436;2023-03-16T09:29:01;11.27;;;6.68;;
40729;SDS011;26418;50.070;8.436;2023-03-16T09:31:27;10.55;;;6.30;;
40729;SDS011;26418;50.070;8.436;2023-03-16T09:33:52;12.55;;;7.03;;
40729;SDS011;26418;50.070;8.436;2023-03-16T09:36:18;14.43;;;7.40;;
40729;SDS011;26418;50.070;8.436;2023-03-16T09:38:44;12.73;;;6.82;;
40729;SDS011;26418;50.070;8.436;2023-03-16T09:41:29;13.05;;;6.88;;
40729;SDS011;26418;50.070;8.436;2023-03-16T09:46:31;10.35;;;6.93;;
40729;SDS011;26418;50.070;8.436;2023-03-16T09:49:00;11.80;;;6.40;;
40729;SDS011;26418;50.070;8.436;2023-03-16T09:53:59;10.00;;;6.77;;
40729;SDS011;26418;50.070;8.436;2023-03-16T09:56:32;11.40;;;6.47;;
40729;SDS011;26418;50.070;8.436;2023-03-16T09:59:01;9.63;;;6.30;;
40729;SDS011;26418;50.070;8.436;2023-03-16T10:04:15;10.20;;;6.38;;
40729;SDS011;26418;50.070;8.436;2023-03-16T10:06:59;9.88;;;6.18;;
40729;SDS011;26418;50.070;8.436;2023-03-16T10:09:35;11.45;;;7.03;;
40729;SDS011;26418;50.070;8.436;2023-03-16T10:12:18;9.27;;;6.22;;
40729;SDS011;26418;50.070;8.436;2023-03-16T10:15:05;10.43;;;6.53;;
40729;SDS011;26418;50.070;8.436;2023-03-16T10:20:17;8.77;;;4.85;;
40729;SDS011;26418;50.070;8.436;2023-03-16T10:22:46;10.30;;;5.60;;
40729;SDS011;26418;50.070;8.436;2023-03-16T10:25:18;10.45;;;6.07;;
40729;SDS011;26418;50.070;8.436;2023-03-16T10:27:53;7.23;;;5.83;;
40729;SDS011;26418;50.070;8.436;2023-03-16T10:30:22;8.88;;;5.88;;
40729;SDS011;26418;50.070;8.436;2023-03-16T10:32:54;10.23;;;6.03;;
40729;SDS011;26418;50.070;8.436;2023-03-16T10:38:23;9.07;;;5.97;;
40729;SDS011;26418;50.070;8.436;2023-03-16T10:40:54;7.07;;;5.22;;
40729;SDS011;26418;50.070;8.436;2023-03-16T10:43:21;10.02;;;5.40;;
40729;SDS011;26418;50.070;8.436;2023-03-16T10:45:48;7.47;;;4.82;;
40729;SDS011;26418;50.070;8.436;2023-03-16T10:48:18;8.02;;;4.72;;
40729;SDS011;26418;50.070;8.436;2023-03-16T10:50:51;7.43;;;4.13;;
40729;SDS011;26418;50.070;8.436;2023-03-16T10:53:20;9.60;;;5.38;;
40729;SDS011;26418;50.070;8.436;2023-03-16T10:55:46;7.65;;;5.18;;
40729;SDS011;26418;50.070;8.436;2023-03-16T10:58:22;7.15;;;5.43;;
40729;SDS011;26418;50.070;8.436;2023-03-16T11:00:49;6.22;;;4.35;;
40729;SDS011;26418;50.070;8.436;2023-03-16T11:03:57;6.65;;;4.95;;
40729;SDS011;26418;50.070;8.436;2023-03-16T11:06:06;5.68;;;3.47;;
40729;SDS011;26418;50.070;8.436;2023-03-16T11:08:41;5.95;;;3.70;;
40729;SDS011;26418;50.070;8.436;2023-03-16T11:11:09;6.65;;;4.15;;
40729;SDS011;26418;50.070;8.436;2023-03-16T11:13:42;5.25;;;3.97;;
40729;SDS011;26418;50.070;8.436;2023-03-16T11:18:57;5.90;;;3.55;;
40729;SDS011;26418;50.070;8.436;2023-03-16T11:24:00;5.50;;;3.97;;
40729;SDS011;26418;50.070;8.436;2023-03-16T11:26:38;5.60;;;3.67;;
40729;SDS011;26418;50.070;8.436;2023-03-16T11:29:06;4.88;;;3.40;;
40729;SDS011;26418;50.070;8.436;2023-03-16T11:34:18;7.93;;;4.18;;
40729;SDS011;26418;50.070;8.436;2023-03-16T11:36:55;6.47;;;3.67;;
40729;SDS011;26418;50.070;8.436;2023-03-16T11:42:08;7.15;;;3.47;;
40729;SDS011;26418;50.070;8.436;2023-03-16T12:19:21;5.50;;;3.65;;
40729;SDS011;26418;50.070;8.436;2023-03-16T12:21:56;5.45;;;3.85;;
40729;SDS011;26418;50.070;8.436;2023-03-16T12:24:32;6.10;;;3.67;;
40729;SDS011;26418;50.070;8.436;2023-03-16T12:27:04;7.28;;;3.53;;
40729;SDS011;26418;50.070;8.436;2023-03-16T12:34:46;4.82;;;3.10;;
40729;SDS011;26418;50.070;8.436;2023-03-16T12:39:59;4.70;;;2.67;;
40729;SDS011;26418;50.070;8.436;2023-03-16T12:48:11;4.40;;;2.28;;
40729;SDS011;26418;50.070;8.436;2023-03-16T12:50:48;3.90;;;2.00;;
40729;SDS011;26418;50.070;8.436;2023-03-16T12:56:27;3.90;;;2.33;;
40729;SDS011;26418;50.070;8.436;2023-03-16T12:58:55;3.85;;;2.05;;
40729;SDS011;26418;50.070;8.436;2023-03-16T13:01:30;4.55;;;2.63;;
40729;SDS011;26418;50.070;8.436;2023-03-16T13:06:47;3.95;;;1.85;;
40729;SDS011;26418;50.070;8.436;2023-03-16T13:09:17;3.60;;;2.10;;
40729;SDS011;26418;50.070;8.436;2023-03-16T13:11:46;4.43;;;2.33;;
40729;SDS011;26418;50.070;8.436;2023-03-16T13:17:28;4.05;;;2.72;;
40729;SDS011;26418;50.070;8.436;2023-03-16T13:20:00;3.63;;;2.60;;
40729;SDS011;26418;50.070;8.436;2023-03-16T13:22:45;4.80;;;2.60;;
40729;SDS011;26418;50.070;8.436;2023-03-16T13:25:21;3.50;;;2.33;;
40729;SDS011;26418;50.070;8.436;2023-03-16T13:27:51;7.63;;;3.92;;
40729;SDS011;26418;50.070;8.436;2023-03-16T13:30:22;5.68;;;3.10;;
40729;SDS011;26418;50.070;8.436;2023-03-16T13:32:51;5.50;;;3.10;;
40729;SDS011;26418;50.070;8.436;2023-03-16T13:35:25;3.72;;;2.80;;
40729;SDS011;26418;50.070;8.436;2023-03-16T13:37:52;3.90;;;2.65;;
40729;SDS011;26418;50.070;8.436;2023-03-16T13:40:24;11.23;;;3.25;;
40729;SDS011;26418;50.070;8.436;2023-03-16T13:42:51;5.43;;;2.80;;
40729;SDS011;26418;50.070;8.436;2023-03-16T13:45:20;8.25;;;3.22;;
40729;SDS011;26418;50.070;8.436;2023-03-16T13:47:49;9.88;;;4.15;;
40729;SDS011;26418;50.070;8.436;2023-03-16T13:50:15;6.57;;;2.90;;
40729;SDS011;26418;50.070;8.436;2023-03-16T13:52:41;6.25;;;3.10;;
40729;SDS011;26418;50.070;8.436;2023-03-16T13:55:17;5.57;;;3.22;;
40729;SDS011;26418;50.070;8.436;2023-03-16T13:57:47;4.78;;;3.40;;
40729;SDS011;26418;50.070;8.436;2023-03-16T14:02:49;6.50;;;3.83;;
40729;SDS011;26418;50.070;8.436;2023-03-16T14:05:18;6.38;;;3.35;;
40729;SDS011;26418;50.070;8.436;2023-03-16T14:07:55;5.13;;;2.63;;
40729;SDS011;26418;50.070;8.436;2023-03-16T14:10:21;6.82;;;3.45;;
40729;SDS011;26418;50.070;8.436;2023-03-16T14:12:49;6.18;;;3.35;;
40729;SDS011;26418;50.070;8.436;2023-03-16T14:15:15;4.90;;;3.00;;
40729;SDS011;26418;50.070;8.436;2023-03-16T14:17:42;4.57;;;3.00;;
40729;SDS011;26418;50.070;8.436;2023-03-16T14:23:23;5.57;;;3.90;;
40729;SDS011;26418;50.070;8.436;2023-03-16T14:25:53;4.97;;;3.08;;
40729;SDS011;26418;50.070;8.436;2023-03-16T14:28:21;5.65;;;4.15;;
40729;SDS011;26418;50.070;8.436;2023-03-16T14:31:05;6.43;;;3.90;;
40729;SDS011;26418;50.070;8.436;2023-03-16T14:33:36;5.85;;;3.47;;
40729;SDS011;26418;50.070;8.436;2023-03-16T14:36:15;6.45;;;4.00;;
40729;SDS011;26418;50.070;8.436;2023-03-16T14:38:43;8.00;;;3.38;;
40729;SDS011;26418;50.070;8.436;2023-03-16T14:41:28;4.95;;;3.20;;
40729;SDS011;26418;50.070;8.436;2023-03-16T14:43:56;5.75;;;3.70;;
40729;SDS011;26418;50.070;8.436;2023-03-16T14:46:30;6.50;;;3.70;;
40729;SDS011;26418;50.070;8.436;2023-03-16T14:48:59;8.73;;;3.67;;
40729;SDS011;26418;50.070;8.436;2023-03-16T14:51:33;4.63;;;3.65;;
40729;SDS011;26418;50.070;8.436;2023-03-16T14:54:00;7.72;;;4.15;;
40729;SDS011;26418;50.070;8.436;2023-03-16T14:56:30;5.18;;;3.13;;
40729;SDS011;26418;50.070;8.436;2023-03-16T14:58:58;8.27;;;4.25;;
40729;SDS011;26418;50.070;8.436;2023-03-16T15:01:24;6.80;;;3.65;;
40729;SDS011;26418;50.070;8.436;2023-03-16T15:03:50;4.75;;;3.15;;
40729;SDS011;26418;50.070;8.436;2023-03-16T15:06:16;7.13;;;4.15;;
40729;SDS011;26418;50.070;8.436;2023-03-16T15:08:42;7.68;;;3.72;;
40729;SDS011;26418;50.070;8.436;2023-03-16T15:11:10;5.45;;;4.03;;
40729;SDS011;26418;50.070;8.436;2023-03-16T15:13:37;6.38;;;4.20;;
40729;SDS011;26418;50.070;8.436;2023-03-16T15:16:06;9.25;;;4.18;;
40729;SDS011;26418;50.070;8.436;2023-03-16T15:18:35;5.90;;;3.85;;
40729;SDS011;26418;50.070;8.436;2023-03-16T15:21:03;6.57;;;4.30;;
40729;SDS011;26418;50.070;8.436;2023-03-16T15:23:34;7.43;;;3.80;;
40729;SDS011;26418;50.070;8.436;2023-03-16T15:25:59;6.25;;;3.45;;
40729;SDS011;26418;50.070;8.436;2023-03-16T15:28:27;7.78;;;4.43;;
40729;SDS011;26418;50.070;8.436;2023-03-16T15:30:53;7.88;;;3.90;;
40729;SDS011;26418;50.070;8.436;2023-03-16T15:33:21;4.30;;;3.63;;
40729;SDS011;26418;50.070;8.436;2023-03-16T15:35:47;5.82;;;3.95;;
40729;SDS011;26418;50.070;8.436;2023-03-16T15:38:15;6.88;;;3.67;;
40729;SDS011;26418;50.070;8.436;2023-03-16T15:40:44;6.82;;;3.60;;
40729;SDS011;26418;50.070;8.436;2023-03-16T15:43:12;6.05;;;3.55;;
40729;SDS011;26418;50.070;8.436;2023-03-16T15:45:39;6.80;;;3.85;;
40729;SDS011;26418;50.070;8.436;2023-03-16T15:48:05;6.25;;;3.20;;
40729;SDS011;26418;50.070;8.436;2023-03-16T15:50:30;3.97;;;2.83;;
40729;SDS011;26418;50.070;8.436;2023-03-16T15:52:58;3.70;;;2.55;;
40729;SDS011;26418;50.070;8.436;2023-03-16T15:55:31;5.45;;;3.30;;
40729;SDS011;26418;50.070;8.436;2023-03-16T15:58:08;6.78;;;3.00;;
40729;SDS011;26418;50.070;8.436;2023-03-16T16:00:41;5.30;;;3.80;;
40729;SDS011;26418;50.070;8.436;2023-03-16T16:03:09;5.75;;;3.42;;
40729;SDS011;26418;50.070;8.436;2023-03-16T16:05:35;5.55;;;3.20;;
40729;SDS011;26418;50.070;8.436;2023-03-16T16:08:01;6.80;;;3.00;;
40729;SDS011;26418;50.070;8.436;2023-03-16T16:10:26;5.88;;;3.00;;
40729;SDS011;26418;50.070;8.436;2023-03-16T16:12:53;5.03;;;2.58;;
40729;SDS011;26418;50.070;8.436;2023-03-16T16:15:23;6.25;;;3.05;;
40729;SDS011;26418;50.070;8.436;2023-03-16T16:17:53;4.20;;;2.72;;
40729;SDS011;26418;50.070;8.436;2023-03-16T16:20:21;4.40;;;2.47;;
40729;SDS011;26418;50.070;8.436;2023-03-16T16:22:46;2.85;;;2.03;;